createdAt,value
2022-11-06T00:00:00.545Z,1.4
2022-11-06T00:05:00.516Z,1.5
2022-11-06T00:10:00.422Z,1.6
2022-11-06T00:15:00.301Z,1.6
2022-11-06T00:20:00.159Z,1.7
2022-11-06T00:25:00.206Z,1.8
2022-11-06T00:30:00.233Z,1.9
2022-11-06T00:35:00.173Z,1.9
2022-11-06T00:40:00.170Z,2.1
2022-11-06T00:45:00.187Z,2.1
2022-11-06T00:50:00.255Z,2.2
2022-11-06T00:55:00.187Z,2.4
2022-11-06T01:00:00.303Z,2.4
2022-11-06T01:05:00.219Z,2.6
2022-11-06T01:10:00.232Z,2.6
2022-11-06T01:15:00.221Z,2.8
2022-11-06T01:20:00.226Z,2.8
2022-11-06T01:25:00.342Z,2.9
2022-11-06T01:30:00.265Z,3
2022-11-06T01:35:00.241Z,3.1
2022-11-06T01:40:00.268Z,3.1
2022-11-06T01:45:00.250Z,3.2
2022-11-06T01:50:00.291Z,3.2
2022-11-06T01:55:00.265Z,3.4
2022-11-06T02:00:01.645Z,3.4
2022-11-06T02:05:00.288Z,3.4
2022-11-06T02:10:00.398Z,3.6
2022-11-06T02:15:00.367Z,3.6
2022-11-06T02:20:00.326Z,3.8
2022-11-06T02:25:00.312Z,3.8
2022-11-06T02:30:00.308Z,3.9
2022-11-06T02:35:00.306Z,4
2022-11-06T02:40:00.381Z,4
2022-11-06T02:45:00.318Z,4.1
2022-11-06T02:50:00.375Z,4.1
2022-11-06T02:55:00.349Z,4.2
2022-11-06T03:00:00.390Z,4.2
2022-11-06T03:05:01.334Z,4.4
2022-11-06T03:10:01.296Z,4.4
2022-11-06T03:15:01.364Z,4.4
2022-11-06T03:20:01.389Z,4.5
2022-11-06T03:25:01.225Z,4.6
2022-11-06T03:30:01.280Z,4.6
2022-11-06T03:35:01.261Z,4.6
2022-11-06T03:40:01.287Z,4.6
2022-11-06T03:45:01.296Z,4.6
2022-11-06T03:50:01.315Z,4.6
2022-11-06T03:55:01.295Z,4.6
2022-11-06T04:00:01.352Z,4.6
2022-11-06T04:05:01.297Z,4.7
2022-11-06T04:10:01.322Z,4.6
2022-11-06T04:15:01.284Z,4.6
2022-11-06T04:20:01.292Z,4.6
2022-11-06T04:25:01.306Z,4.5
2022-11-06T04:30:01.311Z,4.3
2022-11-06T04:35:01.445Z,4.1
2022-11-06T04:40:01.406Z,4
2022-11-06T04:45:01.409Z,3.9
2022-11-06T04:50:01.334Z,3.9
2022-11-06T04:55:01.367Z,4
2022-11-06T05:00:01.419Z,3.9
2022-11-06T05:05:01.360Z,3.8
2022-11-06T05:10:01.413Z,3.7
2022-11-06T05:15:01.353Z,3.7
2022-11-06T05:20:01.391Z,3.6
2022-11-06T05:25:01.380Z,3.6
2022-11-06T05:30:01.407Z,3.7
2022-11-06T05:35:01.421Z,3.8
2022-11-06T05:40:01.447Z,3.8
2022-11-06T05:45:01.408Z,3.8
2022-11-06T05:50:01.448Z,3.8
2022-11-06T05:55:01.414Z,3.9
2022-11-06T06:00:01.500Z,3.9
2022-11-06T06:05:01.318Z,3.9
2022-11-06T06:10:01.324Z,3.9
2022-11-06T06:15:00.154Z,4
2022-11-06T06:20:00.179Z,4
2022-11-06T06:25:00.381Z,4
2022-11-06T06:30:00.191Z,3.9
2022-11-06T06:35:00.169Z,3.9
2022-11-06T06:40:00.193Z,3.9
2022-11-06T06:45:00.180Z,3.9
2022-11-06T06:50:00.192Z,3.9
2022-11-06T06:55:00.189Z,4
2022-11-06T07:00:00.201Z,4.1
2022-11-06T07:05:00.293Z,4.1
2022-11-06T07:10:00.230Z,4.2
2022-11-06T07:15:00.226Z,4.2
2022-11-06T07:20:00.214Z,4.3
2022-11-06T07:25:00.226Z,4.4
2022-11-06T07:30:00.233Z,4.4
2022-11-06T07:35:00.231Z,4.4
2022-11-06T07:40:00.241Z,4.5
2022-11-06T07:45:00.261Z,4.6
2022-11-06T07:50:00.252Z,4.6
2022-11-06T07:55:00.262Z,4.8
2022-11-06T08:00:00.267Z,4.9
2022-11-06T08:05:00.265Z,4.8
2022-11-06T08:10:00.283Z,4.8
2022-11-06T08:15:00.284Z,4.8
2022-11-06T08:20:00.289Z,4.9
2022-11-06T08:25:00.326Z,5
2022-11-06T08:30:00.299Z,5.2
2022-11-06T08:35:00.335Z,5.4
2022-11-06T08:40:00.324Z,5.5
2022-11-06T08:45:00.366Z,5.6
2022-11-06T08:50:00.322Z,5.7
2022-11-06T08:55:00.363Z,5.8
2022-11-06T09:00:00.323Z,5.9
2022-11-06T09:05:00.323Z,6.1
2022-11-06T09:10:00.331Z,6.1
2022-11-06T09:15:00.360Z,6.1
2022-11-06T09:20:00.335Z,6.2
2022-11-06T09:25:04.506Z,6.4
2022-11-06T09:30:00.355Z,6.6
2022-11-06T09:35:00.362Z,6.6
2022-11-06T09:40:05.769Z,6.8
2022-11-06T09:45:00.374Z,6.9
2022-11-06T09:50:00.405Z,7.1
2022-11-06T09:55:01.026Z,7.1
2022-11-06T10:00:00.392Z,7.2
2022-11-06T10:05:00.397Z,7.4
2022-11-06T10:10:00.388Z,7.6
2022-11-06T10:15:00.402Z,7.8
2022-11-06T10:20:00.398Z,7.9
2022-11-06T10:25:00.453Z,8.1
2022-11-06T10:30:00.437Z,8.3
2022-11-06T10:35:00.421Z,8.2
2022-11-06T10:40:00.426Z,8.6
2022-11-06T10:45:00.430Z,8.9
2022-11-06T10:50:00.429Z,9.2
2022-11-06T10:55:00.437Z,9.4
2022-11-06T11:00:00.444Z,9.5
2022-11-06T11:05:00.446Z,9.6
2022-11-06T11:10:00.457Z,9.4
2022-11-06T11:15:00.476Z,9.5
2022-11-06T11:20:00.487Z,9.4
2022-11-06T11:25:00.469Z,9.5
2022-11-06T11:30:00.477Z,9.5
2022-11-06T11:35:00.478Z,9.8
2022-11-06T11:40:00.480Z,9.8
2022-11-06T11:45:00.483Z,9.8
2022-11-06T11:50:00.491Z,9.8
2022-11-06T11:55:00.495Z,10
2022-11-06T12:00:00.602Z,10.1
2022-11-06T12:05:00.517Z,10.2
2022-11-06T12:10:00.481Z,10.5
2022-11-06T12:15:00.318Z,10.8
2022-11-06T12:20:00.200Z,10.9
2022-11-06T12:25:00.146Z,10.8
2022-11-06T12:30:00.105Z,10.6
2022-11-06T12:35:00.113Z,10.6
2022-11-06T12:40:00.152Z,10.5
2022-11-06T12:45:00.141Z,10.4
2022-11-06T12:50:00.116Z,10.2
2022-11-06T12:55:00.127Z,10.4
2022-11-06T13:00:00.139Z,10.3
2022-11-06T13:05:00.141Z,10.1
2022-11-06T13:10:00.159Z,10
2022-11-06T13:15:00.172Z,10.1
2022-11-06T13:20:00.155Z,10
2022-11-06T13:25:00.161Z,9.8
2022-11-06T13:30:00.168Z,9.8
2022-11-06T13:35:00.165Z,9.6
2022-11-06T13:40:00.185Z,9.6
2022-11-06T13:45:00.190Z,9.3
2022-11-06T13:50:00.192Z,9.1
2022-11-06T13:55:00.191Z,9.1
2022-11-06T14:00:00.194Z,9
2022-11-06T14:05:00.285Z,8.9
2022-11-06T14:10:00.335Z,8.8
2022-11-06T14:15:00.360Z,8.6
2022-11-06T14:20:00.229Z,8.5
2022-11-06T14:25:02.402Z,8.4
2022-11-06T14:30:00.265Z,8.4
2022-11-06T14:35:00.236Z,8.4
2022-11-06T14:40:00.239Z,8.6
2022-11-06T14:45:00.237Z,8.7
2022-11-06T14:50:00.252Z,8.6
2022-11-06T14:55:04.809Z,8.6
2022-11-06T15:00:00.256Z,8.3
2022-11-06T15:05:00.267Z,8.1
2022-11-06T15:10:00.270Z,8.1
2022-11-06T15:15:00.297Z,8
2022-11-06T15:20:00.284Z,7.8
2022-11-06T15:25:00.307Z,7.6
2022-11-06T15:30:00.305Z,7.4
2022-11-06T15:35:00.314Z,7.2
2022-11-06T15:40:01.260Z,7.1
2022-11-06T15:45:00.331Z,7
2022-11-06T15:50:00.350Z,6.9
2022-11-06T15:55:00.338Z,6.9
2022-11-06T16:00:00.344Z,6.8
2022-11-06T16:05:00.367Z,6.8
2022-11-06T16:10:00.361Z,6.8
2022-11-06T16:15:00.383Z,6.6
2022-11-06T16:20:00.371Z,6.6
2022-11-06T16:25:00.382Z,6.6
2022-11-06T16:30:00.381Z,6.6
2022-11-06T16:35:00.404Z,6.6
2022-11-06T16:40:00.389Z,6.6
2022-11-06T16:45:00.416Z,6.6
2022-11-06T16:50:00.432Z,6.4
2022-11-06T16:55:00.409Z,6.4
2022-11-06T17:00:00.421Z,6.5
2022-11-06T17:05:00.418Z,6.6
2022-11-06T17:10:00.421Z,6.6
2022-11-06T17:15:00.428Z,6.6
2022-11-06T17:20:00.451Z,6.6
2022-11-06T17:25:00.437Z,6.6
2022-11-06T17:30:00.440Z,6.6
2022-11-06T17:35:00.417Z,6.7
2022-11-06T17:40:00.442Z,6.7
2022-11-06T17:45:00.424Z,6.6
2022-11-06T17:50:00.429Z,6.6
2022-11-06T17:55:00.433Z,6.5
2022-11-06T18:00:00.440Z,6.4
2022-11-06T18:05:00.445Z,6.4
2022-11-06T18:10:00.423Z,6.3
2022-11-06T18:15:00.286Z,6.4
2022-11-06T18:20:00.137Z,6.4
2022-11-06T18:25:00.108Z,6.4
2022-11-06T18:30:00.105Z,6.4
2022-11-06T18:35:00.114Z,6.4
2022-11-06T18:40:00.114Z,6.4
2022-11-06T18:45:00.166Z,6.4
2022-11-06T18:50:00.138Z,6.4
2022-11-06T18:55:00.947Z,6.4
2022-11-06T19:00:00.148Z,6.4
2022-11-06T19:05:00.226Z,6.4
2022-11-06T19:10:00.304Z,6.5
2022-11-06T19:15:00.160Z,6.5
2022-11-06T19:20:00.170Z,6.6
2022-11-06T19:25:00.177Z,6.6
2022-11-06T19:30:00.212Z,6.6
2022-11-06T19:35:00.191Z,6.6
2022-11-06T19:40:05.428Z,6.6
2022-11-06T19:45:00.214Z,6.6
2022-11-06T19:50:00.198Z,6.6
2022-11-06T19:55:24.841Z,6.6
2022-11-06T20:00:00.207Z,6.6
2022-11-06T20:05:00.203Z,6.7
2022-11-06T20:10:00.218Z,6.8
2022-11-06T20:15:00.221Z,6.8
2022-11-06T20:20:00.217Z,6.8
2022-11-06T20:25:00.237Z,6.8
2022-11-06T20:30:00.231Z,6.8
2022-11-06T20:35:00.238Z,6.8
2022-11-06T20:40:00.241Z,6.8
2022-11-06T20:45:00.243Z,6.9
2022-11-06T20:50:00.288Z,6.8
2022-11-06T20:55:00.255Z,6.7
2022-11-06T21:00:00.305Z,6.6
2022-11-06T21:05:00.267Z,6.6
2022-11-06T21:10:00.267Z,6.6
2022-11-06T21:15:00.279Z,6.7
2022-11-06T21:20:00.316Z,6.8
2022-11-06T21:25:00.317Z,6.8
2022-11-06T21:30:00.290Z,6.9
2022-11-06T21:35:00.307Z,6.9
2022-11-06T21:40:00.493Z,6.9
2022-11-06T21:45:00.305Z,6.9
2022-11-06T21:50:00.329Z,6.9
2022-11-06T21:55:00.325Z,6.9
2022-11-06T22:00:00.329Z,6.9
2022-11-06T22:05:00.328Z,6.8
2022-11-06T22:10:00.329Z,6.8
2022-11-06T22:15:00.342Z,6.6
2022-11-06T22:20:00.373Z,6.6
2022-11-06T22:25:00.359Z,6.7
2022-11-06T22:30:00.357Z,6.8
2022-11-06T22:35:00.377Z,6.8
2022-11-06T22:40:00.373Z,6.8
2022-11-06T22:45:00.368Z,6.7
2022-11-06T22:50:00.373Z,6.7
2022-11-06T22:55:00.377Z,6.7
2022-11-06T23:00:00.383Z,6.8
2022-11-06T23:05:00.384Z,6.9
2022-11-06T23:10:00.391Z,6.9
2022-11-06T23:15:00.402Z,6.9
2022-11-06T23:20:00.397Z,7
2022-11-06T23:25:00.402Z,7.1
2022-11-06T23:30:00.421Z,7.1
2022-11-06T23:35:04.255Z,7.1
2022-11-06T23:40:00.421Z,7.2
2022-11-06T23:45:00.424Z,7.2
2022-11-06T23:50:00.440Z,7.1
2022-11-06T23:55:00.432Z,6.9
